sensor_id;sensor_type;location;lat;lon;timestamp;temperature;humidity
64652;HTU21D;51062;45.120;37.660;2023-05-10T00:00:42;10.19;79.92
64652;HTU21D;51062;45.120;37.660;2023-05-10T00:03:08;10.16;79.93
64652;HTU21D;51062;45.120;37.660;2023-05-10T00:05:34;10.18;79.90
64652;HTU21D;51062;45.120;37.660;2023-05-10T00:08:01;10.15;79.90
64652;HTU21D;51062;45.120;37.660;2023-05-10T00:10:27;10.15;79.91
64652;HTU21D;51062;45.120;37.660;2023-05-10T00:12:53;10.16;79.90
64652;HTU21D;51062;45.120;37.660;2023-05-10T00:15:19;10.16;79.91
64652;HTU21D;51062;45.120;37.660;2023-05-10T00:17:45;10.15;79.96
64652;HTU21D;51062;45.120;37.660;2023-05-10T00:20:11;10.15;80.01
64652;HTU21D;51062;45.120;37.660;2023-05-10T00:22:37;10.14;80.02
64652;HTU21D;51062;45.120;37.660;2023-05-10T00:25:04;10.16;80.03
64652;HTU21D;51062;45.120;37.660;2023-05-10T00:27:30;10.14;80.03
64652;HTU21D;51062;45.120;37.660;2023-05-10T00:29:56;10.15;80.07
64652;HTU21D;51062;45.120;37.660;2023-05-10T00:32:22;10.16;80.04
64652;HTU21D;51062;45.120;37.660;2023-05-10T00:34:48;10.15;80.06
64652;HTU21D;51062;45.120;37.660;2023-05-10T00:37:14;10.19;80.01
64652;HTU21D;51062;45.120;37.660;2023-05-10T00:39:40;10.19;80.01
64652;HTU21D;51062;45.120;37.660;2023-05-10T00:42:06;10.21;80.01
64652;HTU21D;51062;45.120;37.660;2023-05-10T00:44:32;10.22;79.99
64652;HTU21D;51062;45.120;37.660;2023-05-10T00:46:59;10.23;79.98
64652;HTU21D;51062;45.120;37.660;2023-05-10T00:49:25;10.26;79.96
64652;HTU21D;51062;45.120;37.660;2023-05-10T00:51:52;10.27;79.91
64652;HTU21D;51062;45.120;37.660;2023-05-10T00:54:18;10.27;79.93
64652;HTU21D;51062;45.120;37.660;2023-05-10T00:56:44;10.28;79.96
64652;HTU21D;51062;45.120;37.660;2023-05-10T00:59:16;10.28;79.98
64652;HTU21D;51062;45.120;37.660;2023-05-10T01:01:47;10.28;79.98
64652;HTU21D;51062;45.120;37.660;2023-05-10T01:04:14;10.29;80.01
64652;HTU21D;51062;45.120;37.660;2023-05-10T01:06:41;10.29;80.01
64652;HTU21D;51062;45.120;37.660;2023-05-10T01:09:08;10.29;79.98
64652;HTU21D;51062;45.120;37.660;2023-05-10T01:11:38;10.28;79.96
64652;HTU21D;51062;45.120;37.660;2023-05-10T01:14:05;10.26;79.99
64652;HTU21D;51062;45.120;37.660;2023-05-10T01:16:38;10.24;79.97
64652;HTU21D;51062;45.120;37.660;2023-05-10T01:19:12;10.23;80.01
64652;HTU21D;51062;45.120;37.660;2023-05-10T01:26:50;10.25;79.95
64652;HTU21D;51062;45.120;37.660;2023-05-10T01:37:18;10.27;79.89
64652;HTU21D;51062;45.120;37.660;2023-05-10T01:39:58;10.25;79.89
64652;HTU21D;51062;45.120;37.660;2023-05-10T01:42:30;10.22;79.95
64652;HTU21D;51062;45.120;37.660;2023-05-10T01:45:05;10.21;80.00
64652;HTU21D;51062;45.120;37.660;2023-05-10T01:47:43;10.21;80.04
64652;HTU21D;51062;45.120;37.660;2023-05-10T01:50:17;10.18;80.02
64652;HTU21D;51062;45.120;37.660;2023-05-10T01:52:51;10.16;80.08
64652;HTU21D;51062;45.120;37.660;2023-05-10T01:55:20;10.15;80.11
64652;HTU21D;51062;45.120;37.660;2023-05-10T01:57:51;10.14;80.14
64652;HTU21D;51062;45.120;37.660;2023-05-10T02:00:19;10.13;80.18
64652;HTU21D;51062;45.120;37.660;2023-05-10T02:02:47;10.13;80.16
64652;HTU21D;51062;45.120;37.660;2023-05-10T02:05:15;10.13;80.19
64652;HTU21D;51062;45.120;37.660;2023-05-10T02:07:42;10.14;80.20
64652;HTU21D;51062;45.120;37.660;2023-05-10T02:10:10;10.11;80.20
64652;HTU21D;51062;45.120;37.660;2023-05-10T02:12:42;10.10;80.27
64652;HTU21D;51062;45.120;37.660;2023-05-10T02:15:09;10.09;80.27
64652;HTU21D;51062;45.120;37.660;2023-05-10T02:17:37;10.09;80.29
64652;HTU21D;51062;45.120;37.660;2023-05-10T02:20:06;10.09;80.28
64652;HTU21D;51062;45.120;37.660;2023-05-10T02:22:32;10.09;80.28
64652;HTU21D;51062;45.120;37.660;2023-05-10T02:25:00;10.10;80.29
64652;HTU21D;51062;45.120;37.660;2023-05-10T02:27:29;10.10;80.28
64652;HTU21D;51062;45.120;37.660;2023-05-10T02:29:57;10.10;80.27
64652;HTU21D;51062;45.120;37.660;2023-05-10T02:32:25;10.11;80.27
64652;HTU21D;51062;45.120;37.660;2023-05-10T02:34:52;10.12;80.30
64652;HTU21D;51062;45.120;37.660;2023-05-10T02:37:20;10.14;80.27
64652;HTU21D;51062;45.120;37.660;2023-05-10T02:39:48;10.13;80.24
64652;HTU21D;51062;45.120;37.660;2023-05-10T02:42:18;10.16;80.26
64652;HTU21D;51062;45.120;37.660;2023-05-10T02:44:48;10.15;80.24
64652;HTU21D;51062;45.120;37.660;2023-05-10T02:47:17;10.16;80.22
64652;HTU21D;51062;45.120;37.660;2023-05-10T02:49:44;10.18;80.28
64652;HTU21D;51062;45.120;37.660;2023-05-10T02:52:10;10.18;80.32
64652;HTU21D;51062;45.120;37.660;2023-05-10T02:54:43;10.20;80.33
64652;HTU21D;51062;45.120;37.660;2023-05-10T02:57:15;10.21;80.32
64652;HTU21D;51062;45.120;37.660;2023-05-10T02:59:41;10.25;80.36
64652;HTU21D;51062;45.120;37.660;2023-05-10T03:02:12;10.25;80.34
64652;HTU21D;51062;45.120;37.660;2023-05-10T03:04:39;10.27;80.33
64652;HTU21D;51062;45.120;37.660;2023-05-10T03:07:05;10.27;80.32
64652;HTU21D;51062;45.120;37.660;2023-05-10T03:09:32;10.28;80.33
64652;HTU21D;51062;45.120;37.660;2023-05-10T03:14:49;10.27;80.28
64652;HTU21D;51062;45.120;37.660;2023-05-10T03:17:25;10.25;80.22
64652;HTU21D;51062;45.120;37.660;2023-05-10T03:19:58;10.26;80.20
64652;HTU21D;51062;45.120;37.660;2023-05-10T03:22:36;10.28;80.13
64652;HTU21D;51062;45.120;37.660;2023-05-10T03:25:06;10.28;80.11
64652;HTU21D;51062;45.120;37.660;2023-05-10T03:27:35;10.30;80.07
64652;HTU21D;51062;45.120;37.660;2023-05-10T03:30:02;10.29;80.10
64652;HTU21D;51062;45.120;37.660;2023-05-10T03:32:32;10.30;80.14
64652;HTU21D;51062;45.120;37.660;2023-05-10T03:35:01;10.33;80.15
64652;HTU21D;51062;45.120;37.660;2023-05-10T03:37:27;10.34;80.14
64652;HTU21D;51062;45.120;37.660;2023-05-10T03:39:53;10.35;80.12
64652;HTU21D;51062;45.120;37.660;2023-05-10T03:42:20;10.37;80.13
64652;HTU21D;51062;45.120;37.660;2023-05-10T03:44:46;10.36;80.16
64652;HTU21D;51062;45.120;37.660;2023-05-10T03:47:12;10.39;80.24
64652;HTU21D;51062;45.120;37.660;2023-05-10T03:49:38;10.44;80.26
64652;HTU21D;51062;45.120;37.660;2023-05-10T03:52:04;10.50;80.24
64652;HTU21D;51062;45.120;37.660;2023-05-10T03:54:31;10.58;80.26
64652;HTU21D;51062;45.120;37.660;2023-05-10T03:56:58;10.70;80.24
64652;HTU21D;51062;45.120;37.660;2023-05-10T03:59:24;10.80;80.16
64652;HTU21D;51062;45.120;37.660;2023-05-10T04:01:51;10.90;80.14
64652;HTU21D;51062;45.120;37.660;2023-05-10T04:04:17;11.07;80.11
64652;HTU21D;51062;45.120;37.660;2023-05-10T04:06:44;11.33;79.92
64652;HTU21D;51062;45.120;37.660;2023-05-10T04:09:10;11.58;79.73
64652;HTU21D;51062;45.120;37.660;2023-05-10T04:11:38;11.70;79.62
64652;HTU21D;51062;45.120;37.660;2023-05-10T04:14:04;11.72;79.56
64652;HTU21D;51062;45.120;37.660;2023-05-10T04:16:30;11.63;79.44
64652;HTU21D;51062;45.120;37.660;2023-05-10T04:18:56;11.57;79.60
64652;HTU21D;51062;45.120;37.660;2023-05-10T04:21:23;11.53;79.70
64652;HTU21D;51062;45.120;37.660;2023-05-10T04:23:49;11.58;79.74
64652;HTU21D;51062;45.120;37.660;2023-05-10T04:26:15;11.61;79.69
64652;HTU21D;51062;45.120;37.660;2023-05-10T04:28:41;11.63;79.66
64652;HTU21D;51062;45.120;37.660;2023-05-10T04:31:08;11.70;79.72
64652;HTU21D;51062;45.120;37.660;2023-05-10T04:33:35;11.77;79.68
64652;HTU21D;51062;45.120;37.660;2023-05-10T04:36:03;11.81;79.60
64652;HTU21D;51062;45.120;37.660;2023-05-10T04:38:29;11.83;79.45
64652;HTU21D;51062;45.120;37.660;2023-05-10T04:41:09;11.81;79.36
64652;HTU21D;51062;45.120;37.660;2023-05-10T04:43:36;11.79;79.32
64652;HTU21D;51062;45.120;37.660;2023-05-10T04:46:02;11.78;79.23
64652;HTU21D;51062;45.120;37.660;2023-05-10T04:48:29;11.77;79.19
64652;HTU21D;51062;45.120;37.660;2023-05-10T04:50:55;11.77;79.18
64652;HTU21D;51062;45.120;37.660;2023-05-10T04:53:22;11.74;79.09
64652;HTU21D;51062;45.120;37.660;2023-05-10T04:55:48;11.70;79.06
64652;HTU21D;51062;45.120;37.660;2023-05-10T04:58:14;11.63;79.15
64652;HTU21D;51062;45.120;37.660;2023-05-10T05:00:40;11.63;79.37
64652;HTU21D;51062;45.120;37.660;2023-05-10T05:03:07;11.70;79.46
64652;HTU21D;51062;45.120;37.660;2023-05-10T05:05:33;11.74;79.47
64652;HTU21D;51062;45.120;37.660;2023-05-10T05:07:59;11.84;79.47
64652;HTU21D;51062;45.120;37.660;2023-05-10T05:10:26;11.89;79.36
64652;HTU21D;51062;45.120;37.660;2023-05-10T05:12:52;11.94;79.33
64652;HTU21D;51062;45.120;37.660;2023-05-10T05:15:18;11.99;79.33
64652;HTU21D;51062;45.120;37.660;2023-05-10T05:17:44;12.06;79.30
64652;HTU21D;51062;45.120;37.660;2023-05-10T05:20:11;12.15;79.30
64652;HTU21D;51062;45.120;37.660;2023-05-10T05:22:37;12.30;79.36
64652;HTU21D;51062;45.120;37.660;2023-05-10T05:25:03;12.44;79.37
64652;HTU21D;51062;45.120;37.660;2023-05-10T05:27:30;12.57;79.33
64652;HTU21D;51062;45.120;37.660;2023-05-10T05:29:56;12.66;79.27
64652;HTU21D;51062;45.120;37.660;2023-05-10T05:32:24;12.82;79.53
64652;HTU21D;51062;45.120;37.660;2023-05-10T05:34:50;13.45;80.36
64652;HTU21D;51062;45.120;37.660;2023-05-10T05:37:18;14.33;80.65
64652;HTU21D;51062;45.120;37.660;2023-05-10T05:39:45;15.43;80.75
64652;HTU21D;51062;45.120;37.660;2023-05-10T05:42:12;16.78;79.80
64652;HTU21D;51062;45.120;37.660;2023-05-10T05:44:39;17.54;78.16
64652;HTU21D;51062;45.120;37.660;2023-05-10T05:47:05;17.83;78.03
64652;HTU21D;51062;45.120;37.660;2023-05-10T05:49:32;18.55;77.21
64652;HTU21D;51062;45.120;37.660;2023-05-10T05:51:59;19.00;76.22
64652;HTU21D;51062;45.120;37.660;2023-05-10T05:54:26;19.12;75.31
64652;HTU21D;51062;45.120;37.660;2023-05-10T05:56:57;18.51;75.26
64652;HTU21D;51062;45.120;37.660;2023-05-10T05:59:23;17.78;76.47
64652;HTU21D;51062;45.120;37.660;2023-05-10T06:01:50;17.21;77.47
64652;HTU21D;51062;45.120;37.660;2023-05-10T06:04:17;16.70;77.91
64652;HTU21D;51062;45.120;37.660;2023-05-10T06:06:44;16.27;78.08
64652;HTU21D;51062;45.120;37.660;2023-05-10T06:09:10;15.90;78.11
64652;HTU21D;51062;45.120;37.660;2023-05-10T06:11:36;15.59;78.07
64652;HTU21D;51062;45.120;37.660;2023-05-10T06:14:03;15.34;77.99
64652;HTU21D;51062;45.120;37.660;2023-05-10T06:16:34;15.15;77.92
64652;HTU21D;51062;45.120;37.660;2023-05-10T06:19:00;15.01;77.82
64652;HTU21D;51062;45.120;37.660;2023-05-10T06:21:26;14.88;77.78
64652;HTU21D;51062;45.120;37.660;2023-05-10T06:23:52;14.79;77.86
64652;HTU21D;51062;45.120;37.660;2023-05-10T06:26:18;14.72;77.86
64652;HTU21D;51062;45.120;37.660;2023-05-10T06:28:46;14.65;77.63
64652;HTU21D;51062;45.120;37.660;2023-05-10T06:31:12;14.49;77.40
64652;HTU21D;51062;45.120;37.660;2023-05-10T06:33:38;14.26;76.94
64652;HTU21D;51062;45.120;37.660;2023-05-10T06:36:05;14.04;76.83
64652;HTU21D;51062;45.120;37.660;2023-05-10T06:38:31;13.85;76.98
64652;HTU21D;51062;45.120;37.660;2023-05-10T06:40:57;13.74;77.18
64652;HTU21D;51062;45.120;37.660;2023-05-10T06:43:23;13.75;77.30
64652;HTU21D;51062;45.120;37.660;2023-05-10T06:45:50;13.83;77.18
64652;HTU21D;51062;45.120;37.660;2023-05-10T06:48:16;14.59;78.70
64652;HTU21D;51062;45.120;37.660;2023-05-10T06:50:43;16.02;78.83
64652;HTU21D;51062;45.120;37.660;2023-05-10T06:53:09;0.00;77.55
64652;HTU21D;51062;45.120;37.660;2023-05-10T06:55:35;18.29;76.43
64652;HTU21D;51062;45.120;37.660;2023-05-10T06:58:01;18.56;74.84
64652;HTU21D;51062;45.120;37.660;2023-05-10T07:00:27;18.04;74.51
64652;HTU21D;51062;45.120;37.660;2023-05-10T07:02:53;17.40;74.75
64652;HTU21D;51062;45.120;37.660;2023-05-10T07:05:20;16.78;75.08
64652;HTU21D;51062;45.120;37.660;2023-05-10T07:07:46;16.19;74.98
64652;HTU21D;51062;45.120;37.660;2023-05-10T07:10:13;15.63;75.16
64652;HTU21D;51062;45.120;37.660;2023-05-10T07:12:39;15.24;75.61
64652;HTU21D;51062;45.120;37.660;2023-05-10T07:15:06;14.97;75.87
64652;HTU21D;51062;45.120;37.660;2023-05-10T07:17:32;14.84;75.92
64652;HTU21D;51062;45.120;37.660;2023-05-10T07:19:59;14.69;75.95
64652;HTU21D;51062;45.120;37.660;2023-05-10T07:22:26;14.51;75.58
64652;HTU21D;51062;45.120;37.660;2023-05-10T07:24:52;14.30;75.48
64652;HTU21D;51062;45.120;37.660;2023-05-10T07:27:18;14.08;75.38
64652;HTU21D;51062;45.120;37.660;2023-05-10T07:29:44;13.85;75.33
64652;HTU21D;51062;45.120;37.660;2023-05-10T07:32:10;13.63;75.32
64652;HTU21D;51062;45.120;37.660;2023-05-10T07:34:36;13.43;75.45
64652;HTU21D;51062;45.120;37.660;2023-05-10T07:37:02;13.25;75.54
64652;HTU21D;51062;45.120;37.660;2023-05-10T07:39:28;13.11;75.56
64652;HTU21D;51062;45.120;37.660;2023-05-10T07:41:55;12.97;75.48
64652;HTU21D;51062;45.120;37.660;2023-05-10T07:44:21;12.87;75.54
64652;HTU21D;51062;45.120;37.660;2023-05-10T07:46:47;12.78;75.57
64652;HTU21D;51062;45.120;37.660;2023-05-10T07:49:14;12.72;75.60
64652;HTU21D;51062;45.120;37.660;2023-05-10T07:51:40;12.67;75.60
64652;HTU21D;51062;45.120;37.660;2023-05-10T07:54:06;12.65;75.69
64652;HTU21D;51062;45.120;37.660;2023-05-10T07:56:33;12.67;75.64
64652;HTU21D;51062;45.120;37.660;2023-05-10T07:59:00;12.67;75.54
64652;HTU21D;51062;45.120;37.660;2023-05-10T08:01:29;12.71;75.54
64652;HTU21D;51062;45.120;37.660;2023-05-10T08:03:55;12.74;75.43
64652;HTU21D;51062;45.120;37.660;2023-05-10T08:06:21;12.76;75.38
64652;HTU21D;51062;45.120;37.660;2023-05-10T08:08:48;12.79;75.42
64652;HTU21D;51062;45.120;37.660;2023-05-10T08:11:21;12.88;75.47
64652;HTU21D;51062;45.120;37.660;2023-05-10T08:13:49;12.99;75.51
64652;HTU21D;51062;45.120;37.660;2023-05-10T08:16:16;13.16;75.44
64652;HTU21D;51062;45.120;37.660;2023-05-10T08:18:44;13.33;75.36
64652;HTU21D;51062;45.120;37.660;2023-05-10T08:21:10;13.52;75.34
64652;HTU21D;51062;45.120;37.660;2023-05-10T08:23:40;13.73;75.19
64652;HTU21D;51062;45.120;37.660;2023-05-10T08:26:06;13.92;75.06
64652;HTU21D;51062;45.120;37.660;2023-05-10T08:28:32;14.08;75.03
64652;HTU21D;51062;45.120;37.660;2023-05-10T08:30:58;14.21;74.98
64652;HTU21D;51062;45.120;37.660;2023-05-10T08:33:24;14.29;74.92
64652;HTU21D;51062;45.120;37.660;2023-05-10T08:35:50;14.43;74.88
64652;HTU21D;51062;45.120;37.660;2023-05-10T08:38:17;14.57;74.82
64652;HTU21D;51062;45.120;37.660;2023-05-10T08:40:44;14.70;74.89
64652;HTU21D;51062;45.120;37.660;2023-05-10T08:43:12;14.93;74.93
64652;HTU21D;51062;45.120;37.660;2023-05-10T08:45:40;15.17;74.79
64652;HTU21D;51062;45.120;37.660;2023-05-10T08:48:08;15.37;74.54
64652;HTU21D;51062;45.120;37.660;2023-05-10T08:50:39;15.47;74.26
64652;HTU21D;51062;45.120;37.660;2023-05-10T08:53:13;15.40;73.99
64652;HTU21D;51062;45.120;37.660;2023-05-10T08:55:40;15.27;73.88
64652;HTU21D;51062;45.120;37.660;2023-05-10T08:58:09;15.11;73.82
64652;HTU21D;51062;45.120;37.660;2023-05-10T09:00:35;14.91;73.80
64652;HTU21D;51062;45.120;37.660;2023-05-10T09:03:04;14.68;73.78
64652;HTU21D;51062;45.120;37.660;2023-05-10T09:05:31;14.41;73.72
64652;HTU21D;51062;45.120;37.660;2023-05-10T09:07:58;14.11;73.90
64652;HTU21D;51062;45.120;37.660;2023-05-10T09:10:26;13.89;74.10
64652;HTU21D;51062;45.120;37.660;2023-05-10T09:12:54;13.70;74.35
64652;HTU21D;51062;45.120;37.660;2023-05-10T09:15:21;13.62;74.44
64652;HTU21D;51062;45.120;37.660;2023-05-10T09:17:49;13.58;74.58
64652;HTU21D;51062;45.120;37.660;2023-05-10T09:20:15;13.59;74.58
64652;HTU21D;51062;45.120;37.660;2023-05-10T09:22:43;13.61;74.55
64652;HTU21D;51062;45.120;37.660;2023-05-10T09:25:16;13.74;74.54
64652;HTU21D;51062;45.120;37.660;2023-05-10T09:27:47;13.91;74.47
64652;HTU21D;51062;45.120;37.660;2023-05-10T09:30:26;14.09;74.36
64652;HTU21D;51062;45.120;37.660;2023-05-10T09:32:54;14.30;74.33
64652;HTU21D;51062;45.120;37.660;2023-05-10T09:35:22;14.52;74.18
64652;HTU21D;51062;45.120;37.660;2023-05-10T09:37:50;14.71;74.10
64652;HTU21D;51062;45.120;37.660;2023-05-10T09:40:26;14.94;73.91
64652;HTU21D;51062;45.120;37.660;2023-05-10T09:43:03;15.11;73.51
64652;HTU21D;51062;45.120;37.660;2023-05-10T09:45:30;15.25;73.54
64652;HTU21D;51062;45.120;37.660;2023-05-10T09:47:58;15.44;73.38
64652;HTU21D;51062;45.120;37.660;2023-05-10T09:50:25;15.62;73.27
64652;HTU21D;51062;45.120;37.660;2023-05-10T09:55:26;16.12;72.93
64652;HTU21D;51062;45.120;37.660;2023-05-10T09:58:03;16.37;72.78
64652;HTU21D;51062;45.120;37.660;2023-05-10T10:00:44;16.60;72.57
64652;HTU21D;51062;45.120;37.660;2023-05-10T10:03:15;16.66;72.23
64652;HTU21D;51062;45.120;37.660;2023-05-10T10:05:42;16.64;72.21
64652;HTU21D;51062;45.120;37.660;2023-05-10T10:08:10;16.58;72.14
64652;HTU21D;51062;45.120;37.660;2023-05-10T10:10:36;16.52;72.29
64652;HTU21D;51062;45.120;37.660;2023-05-10T10:13:02;16.50;72.25
64652;HTU21D;51062;45.120;37.660;2023-05-10T10:15:28;16.51;72.13
64652;HTU21D;51062;45.120;37.660;2023-05-10T10:17:54;16.44;71.96
64652;HTU21D;51062;45.120;37.660;2023-05-10T10:20:22;16.33;71.96
64652;HTU21D;51062;45.120;37.660;2023-05-10T10:22:48;16.27;71.93
64652;HTU21D;51062;45.120;37.660;2023-05-10T10:25:16;16.20;71.84
64652;HTU21D;51062;45.120;37.660;2023-05-10T10:28:04;16.04;71.90
64652;HTU21D;51062;45.120;37.660;2023-05-10T10:30:47;15.89;71.90
64652;HTU21D;51062;45.120;37.660;2023-05-10T10:33:42;15.78;71.94
64652;HTU21D;51062;45.120;37.660;2023-05-10T10:36:15;15.72;71.90
64652;HTU21D;51062;45.120;37.660;2023-05-10T10:41:34;15.69;71.99
64652;HTU21D;51062;45.120;37.660;2023-05-10T10:52:38;15.68;71.55
64652;HTU21D;51062;45.120;37.660;2023-05-10T10:55:13;15.61;71.61
64652;HTU21D;51062;45.120;37.660;2023-05-10T10:57:47;15.56;71.57
64652;HTU21D;51062;45.120;37.660;2023-05-10T11:08:30;15.43;71.38
64652;HTU21D;51062;45.120;37.660;2023-05-10T11:13:45;15.49;71.29
64652;HTU21D;51062;45.120;37.660;2023-05-10T11:18:58;15.62;71.02
64652;HTU21D;51062;45.120;37.660;2023-05-10T11:21:25;15.66;70.83
64652;HTU21D;51062;45.120;37.660;2023-05-10T11:23:54;15.70;70.78
64652;HTU21D;51062;45.120;37.660;2023-05-10T11:26:29;15.73;70.71
64652;HTU21D;51062;45.120;37.660;2023-05-10T11:28:55;15.77;70.62
64652;HTU21D;51062;45.120;37.660;2023-05-10T11:31:22;15.88;70.62
64652;HTU21D;51062;45.120;37.660;2023-05-10T11:33:51;16.03;70.53
64652;HTU21D;51062;45.120;37.660;2023-05-10T11:36:23;16.10;70.19
64652;HTU21D;51062;45.120;37.660;2023-05-10T11:38:49;16.06;70.00
64652;HTU21D;51062;45.120;37.660;2023-05-10T11:41:17;16.00;70.02
64652;HTU21D;51062;45.120;37.660;2023-05-10T11:43:46;15.97;69.96
64652;HTU21D;51062;45.120;37.660;2023-05-10T11:46:13;15.89;69.90
64652;HTU21D;51062;45.120;37.660;2023-05-10T11:48:40;15.82;69.86
64652;HTU21D;51062;45.120;37.660;2023-05-10T11:51:07;15.78;69.95
64652;HTU21D;51062;45.120;37.660;2023-05-10T11:53:34;15.87;69.97
64652;HTU21D;51062;45.120;37.660;2023-05-10T11:56:05;15.96;69.79
64652;HTU21D;51062;45.120;37.660;2023-05-10T11:58:32;16.02;69.68
64652;HTU21D;51062;45.120;37.660;2023-05-10T12:01:02;16.12;69.74
64652;HTU21D;51062;45.120;37.660;2023-05-10T12:03:29;16.16;69.55
64652;HTU21D;51062;45.120;37.660;2023-05-10T12:05:56;16.13;69.50
64652;HTU21D;51062;45.120;37.660;2023-05-10T12:08:23;16.06;69.42
64652;HTU21D;51062;45.120;37.660;2023-05-10T12:10:50;16.04;69.43
64652;HTU21D;51062;45.120;37.660;2023-05-10T12:13:17;15.92;69.15
64652;HTU21D;51062;45.120;37.660;2023-05-10T12:15:44;15.80;69.14
64652;HTU21D;51062;45.120;37.660;2023-05-10T12:18:11;15.71;69.13
64652;HTU21D;51062;45.120;37.660;2023-05-10T12:20:39;15.68;69.09
64652;HTU21D;51062;45.120;37.660;2023-05-10T12:23:07;15.63;69.00
64652;HTU21D;51062;45.120;37.660;2023-05-10T12:25:35;15.69;69.00
64652;HTU21D;51062;45.120;37.660;2023-05-10T12:28:07;15.76;68.76
64652;HTU21D;51062;45.120;37.660;2023-05-10T12:30:34;15.82;68.78
64652;HTU21D;51062;45.120;37.660;2023-05-10T12:33:02;15.90;68.61
64652;HTU21D;51062;45.120;37.660;2023-05-10T12:35:33;15.91;68.46
64652;HTU21D;51062;45.120;37.660;2023-05-10T12:40:56;15.88;68.20
64652;HTU21D;51062;45.120;37.660;2023-05-10T12:43:22;15.73;68.22
64652;HTU21D;51062;45.120;37.660;2023-05-10T12:45:49;15.58;68.15
64652;HTU21D;51062;45.120;37.660;2023-05-10T12:48:15;15.43;68.16
64652;HTU21D;51062;45.120;37.660;2023-05-10T12:50:41;15.27;68.09
64652;HTU21D;51062;45.120;37.660;2023-05-10T12:53:07;15.09;68.28
64652;HTU21D;51062;45.120;37.660;2023-05-10T12:55:33;14.97;68.30
64652;HTU21D;51062;45.120;37.660;2023-05-10T12:57:59;14.82;68.33
64652;HTU21D;51062;45.120;37.660;2023-05-10T13:00:25;14.67;68.36
64652;HTU21D;51062;45.120;37.660;2023-05-10T13:02:51;14.52;68.40
64652;HTU21D;51062;45.120;37.660;2023-05-10T13:05:17;14.36;68.45
64652;HTU21D;51062;45.120;37.660;2023-05-10T13:07:43;14.29;68.77
64652;HTU21D;51062;45.120;37.660;2023-05-10T13:10:10;14.30;68.94
64652;HTU21D;51062;45.120;37.660;2023-05-10T13:12:37;14.37;68.68
64652;HTU21D;51062;45.120;37.660;2023-05-10T13:15:03;14.32;68.49
64652;HTU21D;51062;45.120;37.660;2023-05-10T13:17:30;14.20;68.43
64652;HTU21D;51062;45.120;37.660;2023-05-10T13:19:56;14.10;68.47
64652;HTU21D;51062;45.120;37.660;2023-05-10T13:22:22;14.04;68.65
64652;HTU21D;51062;45.120;37.660;2023-05-10T13:24:48;14.05;68.56
64652;HTU21D;51062;45.120;37.660;2023-05-10T13:27:14;14.03;68.58
64652;HTU21D;51062;45.120;37.660;2023-05-10T13:29:41;13.95;68.46
64652;HTU21D;51062;45.120;37.660;2023-05-10T13:32:07;13.89;68.49
64652;HTU21D;51062;45.120;37.660;2023-05-10T13:34:33;13.77;68.44
64652;HTU21D;51062;45.120;37.660;2023-05-10T13:37:01;13.71;68.73
64652;HTU21D;51062;45.120;37.660;2023-05-10T13:39:27;13.77;68.83
64652;HTU21D;51062;45.120;37.660;2023-05-10T13:41:56;13.88;68.78
64652;HTU21D;51062;45.120;37.660;2023-05-10T13:44:22;13.94;68.52
64652;HTU21D;51062;45.120;37.660;2023-05-10T13:46:49;13.97;68.41
64652;HTU21D;51062;45.120;37.660;2023-05-10T13:49:15;13.98;68.35
64652;HTU21D;51062;45.120;37.660;2023-05-10T13:51:42;13.97;68.30
64652;HTU21D;51062;45.120;37.660;2023-05-10T13:54:09;13.94;68.30
64652;HTU21D;51062;45.120;37.660;2023-05-10T13:56:35;13.94;68.32
64652;HTU21D;51062;45.120;37.660;2023-05-10T13:59:01;13.93;68.32
64652;HTU21D;51062;45.120;37.660;2023-05-10T14:01:27;13.94;68.30
64652;HTU21D;51062;45.120;37.660;2023-05-10T14:03:53;13.95;68.26
64652;HTU21D;51062;45.120;37.660;2023-05-10T14:06:19;13.94;68.23
64652;HTU21D;51062;45.120;37.660;2023-05-10T14:08:45;13.93;68.18
64652;HTU21D;51062;45.120;37.660;2023-05-10T14:11:12;13.91;68.21
64652;HTU21D;51062;45.120;37.660;2023-05-10T14:13:38;13.89;68.23
64652;HTU21D;51062;45.120;37.660;2023-05-10T14:16:04;13.86;68.20
64652;HTU21D;51062;45.120;37.660;2023-05-10T14:18:31;13.83;68.26
64652;HTU21D;51062;45.120;37.660;2023-05-10T14:20:57;13.83;68.23
64652;HTU21D;51062;45.120;37.660;2023-05-10T14:23:23;13.82;68.23
64652;HTU21D;51062;45.120;37.660;2023-05-10T14:25:54;13.79;68.19
64652;HTU21D;51062;45.120;37.660;2023-05-10T14:28:20;13.74;68.13
64652;HTU21D;51062;45.120;37.660;2023-05-10T14:30:48;13.68;68.13
64652;HTU21D;51062;45.120;37.660;2023-05-10T14:33:14;13.64;68.14
64652;HTU21D;51062;45.120;37.660;2023-05-10T14:35:40;13.59;68.18
64652;HTU21D;51062;45.120;37.660;2023-05-10T14:38:06;13.54;68.20
64652;HTU21D;51062;45.120;37.660;2023-05-10T14:40:32;13.49;68.20
64652;HTU21D;51062;45.120;37.660;2023-05-10T14:42:59;13.44;68.25
64652;HTU21D;51062;45.120;37.660;2023-05-10T14:45:25;13.41;68.27
64652;HTU21D;51062;45.120;37.660;2023-05-10T14:48:12;13.36;68.26
64652;HTU21D;51062;45.120;37.660;2023-05-10T14:50:41;13.34;68.24
64652;HTU21D;51062;45.120;37.660;2023-05-10T14:53:07;13.30;68.20
64652;HTU21D;51062;45.120;37.660;2023-05-10T14:55:33;13.24;68.25
64652;HTU21D;51062;45.120;37.660;2023-05-10T14:58:02;13.22;68.28
64652;HTU21D;51062;45.120;37.660;2023-05-10T15:00:29;13.19;68.23
64652;HTU21D;51062;45.120;37.660;2023-05-10T15:02:55;13.16;68.20
64652;HTU21D;51062;45.120;37.660;2023-05-10T15:05:21;13.09;68.20
64652;HTU21D;51062;45.120;37.660;2023-05-10T15:07:48;13.03;68.23
64652;HTU21D;51062;45.120;37.660;2023-05-10T15:10:14;13.00;68.29
64652;HTU21D;51062;45.120;37.660;2023-05-10T15:12:40;12.96;68.26
64652;HTU21D;51062;45.120;37.660;2023-05-10T15:15:07;12.90;68.23
64652;HTU21D;51062;45.120;37.660;2023-05-10T15:17:33;12.85;68.26
64652;HTU21D;51062;45.120;37.660;2023-05-10T15:20:00;12.81;68.29
64652;HTU21D;51062;45.120;37.660;2023-05-10T15:22:29;12.77;68.32
64652;HTU21D;51062;45.120;37.660;2023-05-10T15:24:55;12.72;68.33
64652;HTU21D;51062;45.120;37.660;2023-05-10T15:27:21;12.65;68.35
64652;HTU21D;51062;45.120;37.660;2023-05-10T15:29:48;12.61;68.37
64652;HTU21D;51062;45.120;37.660;2023-05-10T15:32:14;12.55;68.42
64652;HTU21D;51062;45.120;37.660;2023-05-10T15:34:40;12.49;68.46
64652;HTU21D;51062;45.120;37.660;2023-05-10T15:37:06;12.42;68.50
64652;HTU21D;51062;45.120;37.660;2023-05-10T15:39:33;12.36;68.53
64652;HTU21D;51062;45.120;37.660;2023-05-10T15:41:59;12.31;68.53
64652;HTU21D;51062;45.120;37.660;2023-05-10T15:44:25;12.23;68.56
64652;HTU21D;51062;45.120;37.660;2023-05-10T15:46:51;12.16;68.65
64652;HTU21D;51062;45.120;37.660;2023-05-10T15:49:17;12.08;68.71
64652;HTU21D;51062;45.120;37.660;2023-05-10T15:51:43;12.02;68.74